Madeleine-Centre, Canada
Current Conditions -  °F | °C
As of 5:00 PM on Sunday 25 Jan 2015 (Local Time) from CYGP Reporting Station
Blowing Snow Blowing Snow  
Wind Chill: -5°   Ceiling: 3500
Heat Index: 12°   Visibility: 15mi
Dew Point:   Wind: 18mph
Humidity: 62%   Direction: 260°W
Pressure: 29.15"   Gusts: NA
Location:  49.25°N, 65.34°W
Report Text: CYGP 252200Z 26016KT 15SM DRSN BKN035 OVC080 M11/M17 A2915 RMK SC6AC2 SLP874
Loading
Personal Weather Stations






























Interactive Weather Map New forecast layout! Learn more

10-Day Weather Forecast

Advertisements
Track Severe Weather on mobile